Time;durP1;ratioP1;P1;durP2;ratioP2;P2;SDS_P1;SDS_P2;PMS_P1;PMS_P2;Temp;Humidity;BMP_temperature;BMP_pressure;BME280_temperature;BME280_humidity;BME280_pressure;Samples;Min_cycle;Max_cycle;Signal;HPM_P1;HPM_P2
2023/08/06 00:00:47;;;;;;;1.70;1.20;;;;;;;16.36;81.23;99351.63;110893;1259;23705;-80
2023/08/06 00:03:59;;;;;;;3.60;1.20;;;;;;;16.32;81.44;99341.09;111912;1247;21978;-80
2023/08/06 00:07:11;;;;;;;1.60;1.50;;;;;;;16.33;81.41;99342.22;111457;1254;24417;-80
2023/08/06 00:10:32;;;;;;;3.20;2.30;;;;;;;16.31;81.54;99333.75;111519;1254;21995;-80
2023/08/06 00:13:03;;;;;;;4.80;4.40;;;;;;;16.33;81.67;99325.88;111066;1255;21987;-81
2023/08/06 00:15:53;;;;;;;4.60;4.00;;;;;;;16.36;81.67;99318.28;111321;1253;21976;-81
2023/08/06 00:18:29;;;;;;;5.20;4.70;;;;;;;16.40;81.70;99316.02;111419;1253;23789;-80
2023/08/06 00:21:19;;;;;;;4.30;4.00;;;;;;;16.42;81.75;99311.86;111448;1248;24915;-80
2023/08/06 00:23:55;;;;;;;4.00;3.60;;;;;;;16.43;81.70;99309.47;111969;1242;21954;-80
2023/08/06 00:26:38;;;;;;;2.70;2.50;;;;;;;16.47;81.76;99307.20;112849;1242;21992;-79
2023/08/06 00:29:52;;;;;;;3.30;2.70;;;;;;;16.50;81.73;99299.48;112721;1242;21967;-80
2023/08/06 00:33:18;;;;;;;3.00;2.10;;;;;;;16.51;81.90;99297.46;113081;1237;21925;-80
2023/08/06 00:36:33;;;;;;;3.60;2.50;;;;;;;16.52;81.93;99297.70;113274;1236;21976;-80
2023/08/06 00:39:11;;;;;;;3.30;3.00;;;;;;;16.56;81.86;99293.14;113167;1238;21943;-81
2023/08/06 00:41:58;;;;;;;3.10;2.20;;;;;;;16.59;81.83;99283.81;113499;1236;22972;-80
2023/08/06 00:44:55;;;;;;;4.20;2.40;;;;;;;16.59;81.83;99278.84;113191;1236;21963;-80
2023/08/06 00:47:53;;;;;;;2.10;1.70;;;;;;;16.58;81.85;99277.57;112748;1243;22041;-83
2023/08/06 00:50:41;;;;;;;2.30;1.70;;;;;;;16.58;82.05;99282.12;112578;1243;22394;-82
2023/08/06 00:53:29;;;;;;;1.90;1.70;;;;;;;16.59;81.92;99287.10;112085;1248;21988;-81
2023/08/06 00:56:38;;;;;;;2.60;2.00;;;;;;;16.63;82.05;99283.53;111649;1253;21957;-81
2023/08/06 00:59:08;;;;;;;2.10;1.90;;;;;;;16.67;82.18;99274.42;111720;1253;23069;-82
2023/08/06 01:01:44;;;;;;;3.10;2.10;;;;;;;16.72;82.14;99268.23;111457;1253;23127;-83
2023/08/06 01:04:39;;;;;;;3.00;2.00;;;;;;;16.75;82.15;99255.47;111692;1253;21998;-81
2023/08/06 01:08:08;;;;;;;2.80;1.40;;;;;;;16.81;81.98;99236.57;111657;1253;22009;-81
2023/08/06 01:11:06;;;;;;;2.10;1.40;;;;;;;16.77;82.02;99222.77;110984;1258;21981;-76
2023/08/06 01:13:51;;;;;;;1.80;1.60;;;;;;;16.74;81.76;99209.53;111378;1251;21985;-81
2023/08/06 01:16:40;;;;;;;2.10;1.90;;;;;;;16.69;81.76;99209.05;111539;1251;22471;-81
2023/08/06 01:19:21;;;;;;;3.30;2.50;;;;;;;16.68;81.74;99211.77;111491;1252;21988;-79
2023/08/06 01:21:56;;;;;;;4.20;2.10;;;;;;;16.71;81.89;99213.11;111175;1252;23795;-80
2023/08/06 01:24:29;;;;;;;2.20;2.00;;;;;;;16.73;82.02;99207.30;111554;1252;21967;-81
2023/08/06 01:27:57;;;;;;;2.70;2.00;;;;;;;16.66;81.92;99192.83;111632;1252;21974;-80
2023/08/06 01:30:43;;;;;;;5.90;5.40;;;;;;;16.68;82.08;99199.98;111642;1252;23767;-81
2023/08/06 01:33:19;;;;;;;;;;;;;;;16.69;81.84;99187.99;111537;1252;23025;-81
2023/08/06 01:35:59;;;;;;;5.80;5.30;;;;;;;16.60;82.22;99170.92;111686;1252;22045;-81
2023/08/06 01:38:46;;;;;;;3.10;2.30;;;;;;;16.60;82.15;99159.92;111723;1250;21967;-81
2023/08/06 01:41:43;;;;;;;3.40;2.70;;;;;;;16.59;82.02;99145.04;111816;1251;22818;-80
2023/08/06 01:44:53;;;;;;;3.50;2.30;;;;;;;16.59;82.20;99134.00;111545;1254;22002;-81
2023/08/06 01:48:05;;;;;;;3.20;2.90;;;;;;;16.58;82.09;99126.90;111106;1258;22311;-81
2023/08/06 01:51:10;;;;;;;;;;;;;;;;;;;;;
2023/08/06 01:54:07;;;;;;;3.60;3.10;;;;;;;16.56;82.27;99102.06;110725;1259;22118;-80
2023/08/06 01:56:48;;;;;;;4.70;3.80;;;;;;;16.58;82.29;99089.61;110738;1263;21990;-80
2023/08/06 01:59:19;;;;;;;4.10;3.30;;;;;;;16.60;82.29;99086.16;110660;1264;21996;-80
2023/08/06 02:02:15;;;;;;;5.50;5.00;;;;;;;16.58;82.36;99096.50;110279;1260;22059;-80
2023/08/06 02:05:20;;;;;;;9.80;9.10;;;;;;;16.57;82.15;99094.27;110904;1260;22990;-80
2023/08/06 02:08:16;;;;;;;18.70;17.10;;;;;;;16.48;82.23;99061.47;110940;1260;21992;-83
2023/08/06 02:10:58;;;;;;;7.40;6.80;;;;;;;16.55;82.23;99057.41;110447;1264;22060;-80
2023/08/06 02:13:41;;;;;;;5.80;5.20;;;;;;;16.54;82.40;99043.10;110617;1264;23725;-78
2023/08/06 02:16:39;;;;;;;5.70;5.10;;;;;;;16.56;82.34;99018.54;110692;1262;23648;-80
2023/08/06 02:19:43;;;;;;;6.50;5.10;;;;;;;16.50;82.07;98973.52;111581;1248;22973;-79
2023/08/06 02:22:33;;;;;;;5.00;4.50;;;;;;;16.47;82.26;98967.64;112016;1248;22001;-78
2023/08/06 02:26:19;;;;;;;4.60;4.20;;;;;;;16.39;82.51;98957.05;111135;1257;22981;-79
2023/08/06 02:28:59;;;;;;;5.10;4.10;;;;;;;16.37;82.56;98960.73;111379;1251;22383;-78
2023/08/06 02:31:49;;;;;;;4.90;4.50;;;;;;;16.37;82.72;98961.27;111850;1247;23699;-78
2023/08/06 02:34:39;;;;;;;6.70;6.10;;;;;;;16.39;82.68;98966.92;111641;1251;23726;-79
2023/08/06 02:37:29;;;;;;;6.30;5.10;;;;;;;16.43;82.55;98958.71;111026;1257;22459;-78
2023/08/06 02:40:23;;;;;;;6.50;5.90;;;;;;;16.45;82.62;98938.33;110769;1261;23066;-78
2023/08/06 02:43:33;;;;;;;9.50;8.70;;;;;;;16.43;82.63;98955.83;110592;1258;21979;-79
2023/08/06 02:46:57;;;;;;;19.70;18.20;;;;;;;16.40;82.95;98957.73;110918;1257;23171;-79
2023/08/06 02:49:47;;;;;;;20.70;18.80;;;;;;;16.40;82.84;98945.36;111342;1257;23726;-79
2023/08/06 02:52:41;;;;;;;20.30;18.70;;;;;;;16.43;82.86;98934.81;110966;1257;23708;-78
2023/08/06 02:56:09;;;;;;;14.00;12.70;;;;;;;16.43;82.92;98928.30;111551;1250;25012;-79
2023/08/06 02:59:46;;;;;;;14.70;13.30;;;;;;;16.39;83.00;98919.35;111621;1253;21968;-79
2023/08/06 03:02:52;;;;;;;14.50;13.00;;;;;;;16.41;83.07;98913.90;111312;1252;21965;-80
2023/08/06 03:06:22;;;;;;;14.60;13.30;;;;;;;16.41;82.92;98893.50;111222;1255;23776;-79
2023/08/06 03:10:27;;;;;;;11.90;10.80;;;;;;;16.42;83.22;98883.80;111376;1252;23711;-80
2023/08/06 03:13:22;;;;;;;11.00;9.90;;;;;;;16.43;83.21;98865.11;111517;1251;23591;-80
2023/08/06 03:16:24;;;;;;;9.90;9.00;;;;;;;16.43;83.17;98862.16;111489;1251;22135;-80
2023/08/06 03:18:59;;;;;;;10.70;9.80;;;;;;;16.44;82.97;98846.20;111913;1251;21987;-79
2023/08/06 03:21:34;;;;;;;10.70;9.30;;;;;;;16.45;82.87;98828.60;111735;1251;22374;-80
2023/08/06 03:24:33;;;;;;;10.90;10.00;;;;;;;16.42;82.87;98818.98;112148;1246;21981;-81
2023/08/06 03:27:38;;;;;;;10.60;9.70;;;;;;;16.38;82.95;98815.80;112285;1245;22976;-80
2023/08/06 03:30:11;;;;;;;11.00;10.00;;;;;;;16.39;83.10;98822.40;112533;1243;22079;-81
2023/08/06 03:33:27;;;;;;;13.10;12.00;;;;;;;16.41;83.24;98835.46;112778;1238;21944;-81
2023/08/06 03:36:36;;;;;;;13.10;12.00;;;;;;;16.42;83.16;98860.59;112671;1240;23647;-80
2023/08/06 03:40:03;;;;;;;14.10;12.90;;;;;;;16.44;83.30;98886.31;112421;1245;23943;-80
2023/08/06 03:43:32;;;;;;;13.80;12.40;;;;;;;16.45;83.28;98889.32;112501;1245;21949;-80
2023/08/06 03:47:15;;;;;;;12.60;11.50;;;;;;;16.49;83.27;98905.15;111355;1253;22032;-79
2023/08/06 03:50:35;;;;;;;13.00;11.90;;;;;;;16.53;83.31;98910.25;111116;1257;21979;-80
2023/08/06 03:53:41;;;;;;;13.20;12.00;;;;;;;16.54;83.02;98911.52;110403;1261;22456;-82
2023/08/06 03:57:21;;;;;;;12.90;11.60;;;;;;;16.50;83.30;98902.05;111099;1258;22005;-84
2023/08/06 04:01:07;;;;;;;14.50;13.20;;;;;;;16.52;83.13;98888.73;110917;1261;21982;-79
2023/08/06 04:04:40;;;;;;;15.00;13.60;;;;;;;16.50;83.26;98890.33;110434;1265;23054;-79
2023/08/06 04:07:46;;;;;;;14.80;13.40;;;;;;;16.42;83.49;98883.61;109646;1271;23623;-80
2023/08/06 04:11:08;;;;;;;;;;;;;;;16.49;83.33;98898.84;109758;1271;21972;-79
2023/08/06 04:14:03;;;;;;;18.90;17.10;;;;;;;16.43;83.63;98899.48;109266;1274;22512;-80
2023/08/06 04:17:41;;;;;;;17.70;16.00;;;;;;;16.46;83.54;98896.42;109396;1274;22004;-79
2023/08/06 04:20:59;;;;;;;;;;;;;;;;;;;;;
2023/08/06 04:24:08;;;;;;;19.20;17.10;;;;;;;16.52;83.38;98869.91;110107;1265;22076;-80
2023/08/06 04:26:59;;;;;;;19.70;17.70;;;;;;;16.53;83.27;98864.03;110734;1258;23643;-79
2023/08/06 04:33:17;;;;;;;18.40;16.10;;;;;;;16.58;83.29;98873.83;110881;1257;21986;-78
2023/08/06 04:37:10;;;;;;;;;;;;;;;16.60;83.32;98868.95;110896;1257;22742;-78
2023/08/06 04:41:06;;;;;;;17.90;16.00;;;;;;;16.52;83.49;98863.13;111658;1247;21978;-79
2023/08/06 04:45:05;;;;;;;17.20;15.50;;;;;;;16.50;83.61;98868.52;111466;1248;23074;-78
2023/08/06 04:49:02;;;;;;;15.70;13.80;;;;;;;16.50;83.69;98865.23;110839;1258;22002;-78
2023/08/06 04:53:10;;;;;;;19.00;17.00;;;;;;;16.52;83.53;98862.05;110679;1261;22070;-77
2023/08/06 04:56:23;;;;;;;18.70;15.00;;;;;;;16.55;83.51;98855.42;110803;1261;22001;-80
2023/08/06 05:00:08;;;;;;;;;;;;;;;;;;;;;
2023/08/06 05:03:42;;;;;;;17.10;15.40;;;;;;;16.58;83.53;98850.86;110010;1269;21993;-79
2023/08/06 05:06:38;;;;;;;;;;;;;;;16.59;83.38;98850.42;109193;1275;22522;-78
2023/08/06 05:13:07;;;;;;;;;;;;;;;;;;;;;
2023/08/06 05:16:41;;;;;;;32.10;28.90;;;;;;;16.55;83.48;98833.73;110427;1259;23034;-79
2023/08/06 05:20:17;;;;;;;34.60;31.10;;;;;;;16.53;83.50;98826.11;110240;1265;22847;-78
2023/08/06 05:23:34;;;;;;;28.90;25.50;;;;;;;16.54;83.57;98823.28;109675;1269;23012;-78
2023/08/06 05:26:40;;;;;;;21.20;19.00;;;;;;;16.56;83.54;98807.40;110042;1266;22008;-79
2023/08/06 05:29:30;;;;;;;19.10;17.10;;;;;;;16.60;83.62;98802.92;110459;1260;23074;-80
2023/08/06 05:32:05;;;;;;;18.30;16.50;;;;;;;16.59;83.52;98792.08;110732;1256;21984;-78
2023/08/06 05:34:50;;;;;;;17.60;16.00;;;;;;;16.61;83.29;98785.60;110747;1260;21925;-78
2023/08/06 05:37:57;;;;;;;17.40;15.10;;;;;;;16.64;83.42;98785.33;111294;1255;22300;-83
2023/08/06 05:40:41;;;;;;;19.20;17.30;;;;;;;16.65;83.64;98784.38;111031;1259;21976;-84
2023/08/06 05:43:59;;;;;;;;;;;;;;;;;;;;;
2023/08/06 05:47:28;;;;;;;15.80;13.90;;;;;;;16.61;83.76;98774.53;111151;1259;23604;-85
2023/08/06 05:50:59;;;;;;;29.50;26.50;;;;;;;16.56;83.67;98776.71;110838;1261;21977;-78
2023/08/06 05:53:40;;;;;;;35.20;31.20;;;;;;;16.61;83.87;98783.64;110802;1261;21970;-79
2023/08/06 05:56:17;;;;;;;45.00;40.00;;;;;;;16.66;83.65;98778.13;110703;1260;23656;-82
2023/08/06 05:58:57;;;;;;;39.50;35.20;;;;;;;16.69;83.56;98772.55;110887;1257;21982;-78
2023/08/06 06:01:38;;;;;;;27.50;24.70;;;;;;;16.70;83.48;98756.33;110876;1257;23833;-75
2023/08/06 06:04:07;;;;;;;41.10;36.50;;;;;;;16.68;83.53;98740.30;110587;1262;21994;-78
2023/08/06 06:06:54;;;;;;;38.80;34.00;;;;;;;16.75;83.68;98757.12;110515;1260;22022;-77
2023/08/06 06:09:36;;;;;;;38.60;33.00;;;;;;;16.77;83.78;98754.64;110458;1262;22154;-77
2023/08/06 06:12:26;;;;;;;41.00;36.70;;;;;;;16.78;83.61;98753.68;110211;1262;22142;-77
2023/08/06 06:15:11;;;;;;;30.10;27.30;;;;;;;16.79;83.54;98749.79;110421;1262;21980;-80
2023/08/06 06:18:35;;;;;;;25.90;23.20;;;;;;;16.75;83.69;98744.98;110676;1262;23804;-80
2023/08/06 06:21:06;;;;;;;24.40;21.90;;;;;;;16.79;83.75;98742.52;110913;1256;23257;-78
2023/08/06 06:23:40;;;;;;;24.70;19.60;;;;;;;16.85;83.58;98746.45;111299;1253;21984;-77
2023/08/06 06:26:16;;;;;;;21.20;18.80;;;;;;;16.86;83.56;98743.35;111433;1247;23729;-78
2023/08/06 06:28:59;;;;;;;21.80;19.00;;;;;;;16.87;83.45;98746.56;111406;1245;22154;-80
2023/08/06 06:31:35;;;;;;;24.90;19.70;;;;;;;16.90;83.45;98744.44;111567;1250;21922;-77
2023/08/06 06:34:05;;;;;;;21.10;18.70;;;;;;;16.92;83.59;98748.98;111427;1250;23099;-77
2023/08/06 06:36:47;;;;;;;22.20;19.80;;;;;;;16.97;83.63;98735.64;111226;1254;21936;-77
2023/08/06 06:39:29;;;;;;;24.50;21.90;;;;;;;17.00;83.69;98725.44;110791;1252;23133;-78
2023/08/06 06:42:09;;;;;;;24.90;22.00;;;;;;;17.03;83.63;98720.24;110968;1255;22206;-77
2023/08/06 06:44:47;;;;;;;20.40;17.70;;;;;;;17.07;83.63;98711.82;111232;1254;21961;-79
2023/08/06 06:47:22;;;;;;;18.40;16.50;;;;;;;17.11;83.62;98703.49;111169;1252;23735;-79
2023/08/06 06:49:56;;;;;;;;;;;;;;;17.15;83.55;98701.77;111355;1252;21963;-78
2023/08/06 06:52:40;;;;;;;20.30;17.30;;;;;;;17.09;83.84;98699.27;111595;1252;23127;-80
2023/08/06 06:55:29;;;;;;;21.50;19.30;;;;;;;17.11;83.79;98691.33;111562;1247;21968;-79
2023/08/06 06:58:01;;;;;;;20.80;18.80;;;;;;;17.17;83.66;98689.05;112387;1243;22167;-77
2023/08/06 07:00:36;;;;;;;18.00;16.20;;;;;;;17.24;83.75;98694.42;112382;1243;22530;-79
2023/08/06 07:03:24;;;;;;;16.80;15.20;;;;;;;17.28;83.65;98701.76;112226;1243;23701;-79
2023/08/06 07:06:07;;;;;;;18.30;16.50;;;;;;;17.31;83.61;98704.10;112569;1243;23163;-79
2023/08/06 07:08:50;;;;;;;19.90;17.90;;;;;;;17.34;83.35;98701.44;112494;1243;21959;-79
2023/08/06 07:11:27;;;;;;;25.60;19.60;;;;;;;17.33;83.13;98698.36;112041;1246;22788;-79
2023/08/06 07:14:01;;;;;;;24.10;21.70;;;;;;;17.32;82.91;98701.39;111794;1248;21973;-79
2023/08/06 07:16:43;;;;;;;27.90;25.20;;;;;;;17.34;83.14;98701.42;111373;1251;21973;-78
2023/08/06 07:19:18;;;;;;;26.20;23.50;;;;;;;17.36;83.00;98697.55;111583;1251;22005;-79
2023/08/06 07:21:48;;;;;;;25.40;22.90;;;;;;;17.37;83.09;98690.11;111372;1252;23698;-80
2023/08/06 07:24:21;;;;;;;28.20;23.70;;;;;;;17.39;83.03;98681.41;111588;1251;23587;-80
2023/08/06 07:26:52;;;;;;;25.50;22.90;;;;;;;17.41;83.02;98677.15;111388;1249;21961;-79
2023/08/06 07:29:24;;;;;;;23.60;21.00;;;;;;;17.44;83.14;98676.55;111938;1248;21980;-78
2023/08/06 07:32:09;;;;;;;24.70;19.70;;;;;;;17.46;82.98;98677.06;111851;1246;23030;-78
2023/08/06 07:34:47;;;;;;;18.20;16.20;;;;;;;17.49;82.92;98674.75;111669;1250;22871;-79
2023/08/06 07:37:29;;;;;;;18.20;16.50;;;;;;;17.50;82.96;98674.90;111660;1251;21966;-79
2023/08/06 07:40:16;;;;;;;14.30;12.90;;;;;;;17.51;82.79;98666.39;111414;1251;23678;-78
2023/08/06 07:43:12;;;;;;;11.90;10.60;;;;;;;17.50;82.66;98658.39;111138;1256;22407;-79
2023/08/06 07:45:44;;;;;;;11.80;10.70;;;;;;;17.47;82.72;98656.23;110594;1260;22106;-80
2023/08/06 07:48:15;;;;;;;;;;;;;;;17.49;82.47;98654.11;110693;1260;21954;-80
2023/08/06 07:50:57;;;;;;;11.70;10.30;;;;;;;17.43;82.92;98655.24;110912;1259;23227;-80
2023/08/06 07:53:36;;;;;;;9.90;9.00;;;;;;;17.45;83.02;98657.52;110980;1255;22411;-78
2023/08/06 07:56:14;;;;;;;9.50;8.30;;;;;;;17.47;82.91;98654.13;111107;1255;22197;-78
2023/08/06 07:58:46;;;;;;;8.90;8.00;;;;;;;17.51;82.71;98652.73;110985;1260;24309;-79
2023/08/06 08:01:22;;;;;;;8.20;7.50;;;;;;;17.51;82.43;98657.95;110861;1256;22130;-79
2023/08/06 08:04:05;;;;;;;7.10;6.40;;;;;;;17.54;82.58;98661.19;111060;1252;21974;-78
2023/08/06 08:06:53;;;;;;;4.60;3.10;;;;;;;17.55;82.74;98658.63;111390;1252;23603;-78
2023/08/06 08:09:30;;;;;;;2.70;2.50;;;;;;;17.51;82.19;98650.55;111048;1257;22994;-79
2023/08/06 08:12:12;;;;;;;11.30;1.70;;;;;;;17.48;82.17;98644.22;110964;1258;22500;-78
2023/08/06 08:14:45;;;;;;;1.80;1.00;;;;;;;17.45;81.95;98643.12;110696;1258;342181;-79
2023/08/06 08:17:21;;;;;;;1.10;0.60;;;;;;;17.40;81.74;98637.57;111011;1254;21992;-78
2023/08/06 08:19:54;;;;;;;0.90;0.60;;;;;;;17.34;81.67;98634.82;111159;1254;21980;-78
2023/08/06 08:22:25;;;;;;;1.30;0.70;;;;;;;17.29;81.60;98631.39;110981;1256;21967;-77
2023/08/06 08:24:58;;;;;;;1.30;0.90;;;;;;;17.26;81.67;98633.22;111088;1256;23704;-78
2023/08/06 08:27:40;;;;;;;1.10;0.60;;;;;;;17.24;81.70;98627.06;111441;1248;23674;-78
2023/08/06 08:30:15;;;;;;;3.40;0.80;;;;;;;17.21;81.56;98617.89;111653;1248;23617;-78
2023/08/06 08:32:50;;;;;;;1.20;0.50;;;;;;;17.16;81.38;98615.19;111719;1248;21967;-78
2023/08/06 08:35:21;;;;;;;1.70;1.00;;;;;;;17.11;81.20;98617.21;111537;1248;22044;-76
2023/08/06 08:37:57;;;;;;;0.80;0.40;;;;;;;17.07;81.30;98609.52;111912;1248;23717;-77
2023/08/06 08:40:45;;;;;;;1.10;0.60;;;;;;;17.05;81.19;98609.55;112079;1243;21952;-76
2023/08/06 08:43:17;;;;;;;0.90;0.40;;;;;;;17.02;81.21;98606.66;112401;1243;23773;-79
2023/08/06 08:45:55;;;;;;;2.00;0.70;;;;;;;17.00;81.12;98599.40;112157;1248;23169;-78
2023/08/06 08:48:33;;;;;;;1.20;0.60;;;;;;;16.99;81.23;98602.14;112382;1248;21983;-81
2023/08/06 08:51:13;;;;;;;1.00;0.50;;;;;;;16.96;80.92;98602.77;112225;1248;21967;-80
2023/08/06 08:53:57;;;;;;;1.70;0.40;;;;;;;16.89;80.82;98596.92;111588;1250;22217;-79
2023/08/06 08:56:47;;;;;;;;;;;;;;;;;;;;;
2023/08/06 08:59:26;;;;;;;1.00;0.80;;;;;;;16.76;80.46;98573.00;111553;1256;21982;-78
2023/08/06 09:02:02;;;;;;;2.60;2.10;;;;;;;16.69;80.45;98564.84;111153;1256;22001;-81
2023/08/06 09:04:47;;;;;;;1.10;0.70;;;;;;;16.67;80.68;98563.21;111769;1251;22770;-79
2023/08/06 09:07:29;;;;;;;1.00;0.60;;;;;;;16.65;80.75;98570.09;111770;1251;23560;-79
2023/08/06 09:10:07;;;;;;;1.90;0.80;;;;;;;16.63;80.55;98563.73;111614;1251;22730;-78
2023/08/06 09:12:37;;;;;;;1.70;0.90;;;;;;;16.56;80.50;98542.27;111365;1252;22308;-78
2023/08/06 09:15:09;;;;;;;2.60;0.60;;;;;;;16.60;80.52;98539.16;111344;1252;21986;-77
2023/08/06 09:17:38;;;;;;;37.00;34.30;;;;;;;16.57;80.43;98533.91;111313;1252;21943;-79
2023/08/06 09:20:18;;;;;;;13.20;12.30;;;;;;;16.56;80.33;98530.67;111488;1251;23028;-80
2023/08/06 09:22:52;;;;;;;1.30;0.60;;;;;;;16.52;80.26;98527.94;110962;1257;23041;-79
2023/08/06 09:25:30;;;;;;;2.90;0.80;;;;;;;16.46;80.15;98519.13;111141;1252;23085;-77
2023/08/06 09:28:04;;;;;;;1.50;0.60;;;;;;;16.44;80.39;98509.38;111266;1254;21967;-80
2023/08/06 09:30:43;;;;;;;0.80;0.20;;;;;;;16.42;80.16;98497.08;111591;1248;21922;-80
2023/08/06 09:33:22;;;;;;;2.60;0.50;;;;;;;16.36;79.97;98492.86;112348;1244;22113;-78
2023/08/06 09:36:09;;;;;;;2.10;0.60;;;;;;;16.26;79.80;98485.52;112204;1248;21990;-79
2023/08/06 09:38:47;;;;;;;1.50;0.60;;;;;;;16.19;79.85;98519.14;111555;1251;21967;-79
2023/08/06 09:41:28;;;;;;;8.50;3.80;;;;;;;16.13;79.79;98587.55;111528;1252;21948;-77
2023/08/06 09:44:04;;;;;;;4.50;1.20;;;;;;;16.09;80.09;98572.11;111598;1252;22024;-79
2023/08/06 09:47:24;;;;;;;;;;;;;;;;;;;;;
2023/08/06 09:50:30;;;;;;;10.90;1.00;;;;;;;16.06;80.13;98508.19;111313;1257;21961;-80
2023/08/06 09:53:08;;;;;;;0.60;0.40;;;;;;;16.03;80.04;98496.70;111261;1254;23711;-80
2023/08/06 09:55:50;;;;;;;2.20;0.70;;;;;;;15.97;80.05;98462.48;111688;1253;23817;-80
2023/08/06 09:58:32;;;;;;;1.20;0.50;;;;;;;15.99;80.15;98480.90;111912;1249;23761;-80
2023/08/06 10:01:30;;;;;;;3.00;0.80;;;;;;;15.96;80.09;98505.73;112770;1241;22871;-80
2023/08/06 10:04:11;;;;;;;4.00;0.70;;;;;;;15.94;80.05;98532.36;112973;1241;22448;-79
2023/08/06 10:07:02;;;;;;;5.20;1.10;;;;;;;15.90;79.85;98557.16;112838;1241;23773;-80
2023/08/06 10:09:49;;;;;;;3.70;0.90;;;;;;;15.85;79.83;98549.88;112850;1236;23106;-80
2023/08/06 10:12:24;;;;;;;5.30;2.20;;;;;;;15.80;79.80;98521.02;113344;1236;21960;-80
2023/08/06 10:15:09;;;;;;;6.90;6.20;;;;;;;15.78;80.00;98507.50;113246;1236;22712;-80
2023/08/06 10:18:14;;;;;;;2.60;1.20;;;;;;;15.74;80.00;98543.98;112531;1241;22071;-79
2023/08/06 10:21:16;;;;;;;3.20;1.10;;;;;;;15.71;80.19;98578.45;112165;1246;23894;-78
2023/08/06 10:23:59;;;;;;;3.40;0.90;;;;;;;15.73;80.44;98596.30;112567;1246;21975;-80
2023/08/06 10:26:43;;;;;;;2.80;1.00;;;;;;;15.78;80.45;98579.60;112055;1246;21961;-79
2023/08/06 10:29:43;;;;;;;4.20;1.80;;;;;;;15.79;80.25;98552.54;111786;1251;22676;-79
2023/08/06 10:33:00;;;;;;;2.00;0.70;;;;;;;15.80;80.36;98544.35;111785;1251;22896;-80
2023/08/06 10:35:58;;;;;;;2.90;1.50;;;;;;;15.76;80.16;98560.84;111811;1251;21955;-81
2023/08/06 10:38:37;;;;;;;1.80;0.80;;;;;;;15.73;80.22;98579.31;111906;1246;21986;-81
2023/08/06 10:41:23;;;;;;;3.70;1.60;;;;;;;15.72;80.26;98598.16;112221;1246;21988;-81
2023/08/06 10:44:09;;;;;;;2.80;1.30;;;;;;;15.71;80.26;98606.52;111819;1251;22726;-82
2023/08/06 10:46:41;;;;;;;4.30;1.20;;;;;;;15.70;80.35;98611.48;112064;1245;22996;-79
2023/08/06 10:49:22;;;;;;;1.90;1.00;;;;;;;15.71;80.25;98608.80;112715;1241;23727;-83
2023/08/06 10:52:11;;;;;;;1.90;0.90;;;;;;;15.70;80.37;98585.55;113009;1241;22152;-81
2023/08/06 10:54:51;;;;;;;3.20;1.20;;;;;;;15.71;80.40;98579.66;112322;1244;23675;-84
2023/08/06 10:57:29;;;;;;;3.80;1.00;;;;;;;15.71;80.43;98575.45;112349;1244;23706;-82
2023/08/06 11:00:33;;;;;;;1.80;0.70;;;;;;;15.70;80.48;98555.19;112472;1244;23693;-81
2023/08/06 11:03:21;;;;;;;1.00;0.60;;;;;;;15.72;80.56;98536.77;112368;1244;23030;-82
2023/08/06 11:06:11;;;;;;;5.70;0.80;;;;;;;15.74;80.65;98506.79;112309;1244;24009;-81
2023/08/06 11:08:50;;;;;;;2.20;0.70;;;;;;;15.76;80.54;98489.98;111950;1246;22420;-81
2023/08/06 11:11:30;;;;;;;3.30;0.70;;;;;;;15.74;80.30;98517.31;112044;1237;21988;-82
2023/08/06 11:14:14;;;;;;;1.80;0.70;;;;;;;15.73;80.59;98539.91;112329;1242;21977;-82
2023/08/06 11:17:06;;;;;;;1.00;0.50;;;;;;;15.73;80.58;98482.86;112610;1245;23699;-81
2023/08/06 11:20:11;;;;;;;1.30;0.70;;;;;;;15.73;80.60;98437.27;112654;1245;22433;-82
2023/08/06 11:22:55;;;;;;;1.60;0.70;;;;;;;15.74;80.67;98535.05;112662;1245;21977;-81
2023/08/06 11:25:29;;;;;;;1.90;0.70;;;;;;;15.74;80.66;98587.83;112171;1245;22957;-83
2023/08/06 11:28:02;;;;;;;3.20;2.10;;;;;;;15.80;80.73;98581.36;112657;1241;22343;-81
2023/08/06 11:30:48;;;;;;;3.50;0.90;;;;;;;15.88;80.83;98559.10;112518;1240;23572;-80
2023/08/06 11:33:26;;;;;;;2.20;0.80;;;;;;;15.94;80.86;98525.08;112617;1241;21948;-81
2023/08/06 11:36:01;;;;;;;1.80;1.10;;;;;;;16.01;81.02;98507.05;113077;1237;21966;-82
2023/08/06 11:38:30;;;;;;;2.70;1.20;;;;;;;16.09;81.00;98511.24;112823;1241;21972;-83
2023/08/06 11:41:18;;;;;;;2.20;1.20;;;;;;;16.14;81.06;98514.02;112843;1241;21934;-81
2023/08/06 11:43:47;;;;;;;2.30;1.40;;;;;;;16.22;80.89;98493.45;112903;1241;21976;-82
2023/08/06 11:47:06;;;;;;;1.90;0.70;;;;;;;16.27;80.86;98458.20;112414;1246;22072;-82
2023/08/06 11:49:50;;;;;;;1.20;0.60;;;;;;;16.33;80.68;98447.45;111745;1251;22693;-81
2023/08/06 11:52:29;;;;;;;2.00;1.10;;;;;;;16.39;80.58;98458.33;111835;1251;23559;-81
2023/08/06 11:55:14;;;;;;;1.00;0.70;;;;;;;16.44;80.38;98475.78;111846;1252;21967;-82
2023/08/06 11:57:49;;;;;;;1.40;0.90;;;;;;;16.46;80.21;98488.63;111992;1247;23735;-82
2023/08/06 12:00:22;;;;;;;3.40;1.20;;;;;;;16.48;79.94;98497.76;112083;1247;22043;-81
2023/08/06 12:02:53;;;;;;;1.60;0.90;;;;;;;16.49;79.79;98496.20;111802;1247;21980;-82
2023/08/06 12:05:40;;;;;;;2.40;0.90;;;;;;;16.47;79.51;98497.46;112310;1247;21968;-83
2023/08/06 12:08:10;;;;;;;2.60;0.50;;;;;;;16.48;79.48;98503.38;112405;1242;21957;-82
2023/08/06 12:10:53;;;;;;;1.80;0.80;;;;;;;16.48;79.32;98507.23;112735;1241;21980;-81
2023/08/06 12:13:33;;;;;;;1.00;0.70;;;;;;;16.46;79.32;98510.01;112957;1241;21968;-82
2023/08/06 12:16:08;;;;;;;4.60;4.20;;;;;;;16.49;79.32;98528.19;113146;1242;21955;-81
2023/08/06 12:19:09;;;;;;;3.60;2.10;;;;;;;16.51;79.32;98542.35;112623;1241;22502;-83
2023/08/06 12:21:47;;;;;;;1.40;0.90;;;;;;;16.55;79.22;98532.92;112348;1245;21977;-82
2023/08/06 12:24:22;;;;;;;2.80;1.20;;;;;;;16.58;79.10;98518.55;112727;1241;22133;-81
2023/08/06 12:26:58;;;;;;;15.50;8.70;;;;;;;16.61;79.12;98503.00;112938;1241;21969;-79
2023/08/06 12:29:57;;;;;;;2.80;1.60;;;;;;;16.64;79.21;98488.39;113046;1241;22325;-82
2023/08/06 12:32:39;;;;;;;1.50;0.80;;;;;;;16.66;79.16;98472.38;112370;1245;23581;-78
2023/08/06 12:35:14;;;;;;;1.80;0.70;;;;;;;16.69;79.00;98466.63;112382;1246;21984;-80
2023/08/06 12:37:52;;;;;;;2.60;1.00;;;;;;;16.71;78.99;98466.12;112490;1245;23742;-79
2023/08/06 12:40:24;;;;;;;1.40;0.70;;;;;;;16.71;78.88;98466.29;112379;1246;21992;-80
2023/08/06 12:43:06;;;;;;;2.70;1.60;;;;;;;16.75;78.89;98463.32;112633;1246;23691;-80
2023/08/06 12:47:00;;;;;;;2.60;0.90;;;;;;;16.80;79.04;98463.34;112554;1242;21974;-81
2023/08/06 12:49:21;;;;;;;0.90;0.60;;;;;;;16.87;79.32;98454.63;112999;1242;22421;-81
2023/08/06 12:51:59;;;;;;;23.30;21.20;;;;;;;16.97;79.23;98453.15;113166;1229;23898;-79
2023/08/06 12:55:11;;;;;;;1.40;1.30;;;;;;;17.05;79.05;98457.85;113554;1236;21959;-79
2023/08/06 12:57:55;;;;;;;1.00;0.70;;;;;;;17.07;78.54;98459.77;113177;1236;21955;-79
2023/08/06 13:00:42;;;;;;;1.30;0.70;;;;;;;17.08;78.31;98456.00;113243;1236;23568;-80
2023/08/06 13:03:19;;;;;;;1.30;0.80;;;;;;;17.08;78.23;98458.61;113436;1236;23675;-80
2023/08/06 13:05:50;;;;;;;3.10;1.60;;;;;;;17.10;78.16;98450.02;113167;1236;21984;-80
2023/08/06 13:08:32;;;;;;;2.80;1.00;;;;;;;17.11;77.90;98447.05;112907;1238;21972;-80
2023/08/06 13:11:05;;;;;;;0.70;0.40;;;;;;;17.11;77.84;98455.14;113612;1236;23574;-80
2023/08/06 13:13:37;;;;;;;0.80;0.50;;;;;;;17.05;77.72;98445.01;113216;1236;22237;-80
2023/08/06 13:16:10;;;;;;;1.40;0.70;;;;;;;17.08;77.54;98453.84;113252;1236;21971;-79
2023/08/06 13:18:49;;;;;;;1.60;0.80;;;;;;;17.06;77.51;98458.62;113252;1236;21939;-78
2023/08/06 13:21:26;;;;;;;1.10;0.60;;;;;;;17.05;77.60;98464.18;112528;1242;23615;-80
2023/08/06 13:23:59;;;;;;;1.00;0.60;;;;;;;16.99;77.59;98455.95;112791;1242;23594;-79
2023/08/06 13:26:54;;;;;;;0.80;0.50;;;;;;;17.06;77.48;98466.23;112552;1242;22142;-79